Time;durP1;ratioP1;P1;durP2;ratioP2;P2;SDS_P1;SDS_P2;PMS_P1;PMS_P2;Temp;Humidity;BMP_temperature;BMP_pressure;BME280_temperature;BME280_humidity;BME280_pressure;Samples;Min_cycle;Max_cycle;Signal;HPM_P1;HPM_P2
2021/12/04 00:02:22;;;;;;;9.82;4.32;;;;;;;3.49;62.76;98617.94;10531540;28;20134;-68
2021/12/04 00:07:24;;;;;;;6.80;4.10;;;;;;;3.58;62.56;98604.53;10536881;28;20039;-68
2021/12/04 00:12:26;;;;;;;11.30;4.88;;;;;;;3.66;62.58;98587.69;10529542;28;20514;-68
2021/12/04 00:17:28;;;;;;;7.78;4.00;;;;;;;3.64;62.39;98589.53;10544442;28;20350;-67
2021/12/04 00:22:30;;;;;;;7.47;4.20;;;;;;;3.71;62.23;98579.69;10519914;28;20043;-67
2021/12/04 00:27:32;;;;;;;7.70;4.57;;;;;;;3.57;62.53;98557.19;10531156;28;20552;-67
2021/12/04 00:32:36;;;;;;;7.22;4.80;;;;;;;3.56;62.60;98546.91;10524372;28;20112;-67
2021/12/04 00:53:20;;;;;;;6.85;4.55;;;;;;;3.64;62.83;98524.91;10536305;28;20098;-67
2021/12/04 00:58:22;;;;;;;9.02;4.70;;;;;;;3.66;63.01;98517.09;10513058;28;20048;-67
2021/12/04 01:03:25;;;;;;;7.28;5.07;;;;;;;3.72;63.00;98516.75;10540874;28;20411;-67
2021/12/04 01:08:26;;;;;;;8.38;4.18;;;;;;;3.69;62.90;98506.56;10539241;28;20458;-67
2021/12/04 01:13:30;;;;;;;9.27;4.47;;;;;;;3.74;63.21;98507.16;10534616;28;20070;-67
2021/12/04 01:18:32;;;;;;;7.30;4.32;;;;;;;3.73;63.20;98510.66;10516676;28;20055;-67
2021/12/04 01:23:34;;;;;;;6.00;4.10;;;;;;;3.70;63.64;98492.72;10523325;28;20413;-68
2021/12/04 01:28:35;;;;;;;7.38;4.10;;;;;;;3.69;63.65;98493.63;10526758;28;20046;-67
2021/12/04 01:33:37;;;;;;;6.28;3.63;;;;;;;3.72;63.53;98489.13;10526521;28;20052;-68
2021/12/04 01:38:39;;;;;;;5.72;3.55;;;;;;;3.60;63.68;98481.22;10521673;28;20142;-67
2021/12/04 01:43:40;;;;;;;5.28;3.53;;;;;;;3.57;64.15;98474.47;10527489;28;20070;-67
2021/12/04 01:48:42;;;;;;;6.28;3.53;;;;;;;3.60;64.37;98465.72;10527593;28;20087;-67
2021/12/04 01:53:44;;;;;;;6.25;3.65;;;;;;;3.53;64.54;98456.63;10539879;28;20510;-67
2021/12/04 01:58:46;;;;;;;5.72;3.70;;;;;;;3.51;64.77;98445.53;10526343;28;20048;-67
2021/12/04 02:03:47;;;;;;;6.00;3.38;;;;;;;3.49;64.56;98431.84;10526122;28;20059;-68
2021/12/04 02:08:49;;;;;;;7.65;4.55;;;;;;;3.47;64.64;98429.38;10522647;28;20388;-66
2021/12/04 02:13:51;;;;;;;8.45;5.45;;;;;;;3.45;64.95;98422.59;10534360;28;20074;-67
2021/12/04 02:18:52;;;;;;;8.20;5.20;;;;;;;3.34;65.47;98418.00;10546603;28;20046;-68
2021/12/04 02:23:55;;;;;;;8.15;5.28;;;;;;;3.22;65.79;98410.09;10523280;28;20408;-67
2021/12/04 02:28:57;;;;;;;8.65;5.68;;;;;;;3.05;65.92;98404.09;10544224;28;20047;-67
2021/12/04 02:33:59;;;;;;;8.77;5.80;;;;;;;2.81;66.69;98404.56;10520374;28;20411;-67
2021/12/04 02:39:02;;;;;;;8.75;5.90;;;;;;;2.74;66.85;98398.91;10533435;28;20558;-67
2021/12/04 02:44:04;;;;;;;7.95;5.32;;;;;;;2.75;66.81;98379.91;10517123;28;20047;-67
2021/12/04 02:49:07;;;;;;;7.15;5.05;;;;;;;2.58;67.36;98382.53;10533898;28;20130;-67
2021/12/04 02:54:11;;;;;;;7.22;5.30;;;;;;;2.56;67.31;98380.97;10527346;28;20087;-67
2021/12/04 02:59:13;;;;;;;7.50;4.88;;;;;;;2.61;67.28;98381.53;10521302;28;20050;-68
2021/12/04 03:04:15;;;;;;;9.35;6.68;;;;;;;2.67;67.51;98381.22;10552412;28;20044;-67
2021/12/04 03:09:16;;;;;;;7.57;4.03;;;;;;;2.70;67.44;98370.75;10541051;28;20059;-67
2021/12/04 03:14:20;;;;;;;11.75;5.15;;;;;;;2.74;67.28;98355.03;10540743;28;20139;-67
2021/12/04 03:19:21;;;;;;;6.93;4.80;;;;;;;2.70;67.40;98350.91;10538765;28;20058;-67
2021/12/04 03:24:24;;;;;;;6.60;4.03;;;;;;;2.76;67.30;98345.44;10534429;28;20146;-68
2021/12/04 03:29:28;;;;;;;4.95;3.42;;;;;;;2.87;67.00;98329.34;10538995;27;20087;-67
2021/12/04 03:45:11;;;;;;;5.93;2.85;;;;;;;2.75;66.89;98315.38;10553397;28;20039;-67
2021/12/04 03:50:14;;;;;;;4.63;3.13;;;;;;;2.88;66.96;98302.63;10555389;28;20406;-67
2021/12/04 03:55:16;;;;;;;4.30;3.10;;;;;;;2.81;66.60;98302.13;10545158;28;21072;-68
2021/12/04 04:00:23;;;;;;;4.57;2.80;;;;;;;2.82;66.78;98308.97;10533143;28;20071;-67
2021/12/04 04:05:25;;;;;;;4.75;3.63;;;;;;;2.98;66.95;98304.63;10528110;28;20109;-67
2021/12/04 04:10:28;;;;;;;4.88;2.90;;;;;;;2.97;66.57;98299.53;10530902;28;20398;-67
2021/12/04 04:15:29;;;;;;;5.00;3.00;;;;;;;2.94;66.51;98291.97;10533732;28;20515;-67
2021/12/04 04:20:31;;;;;;;4.50;3.38;;;;;;;2.90;66.75;98281.00;10515076;28;20048;-67
2021/12/04 04:25:33;;;;;;;6.05;3.70;;;;;;;2.86;66.91;98264.00;10531317;28;20066;-67
2021/12/04 04:30:36;;;;;;;5.10;3.42;;;;;;;2.89;66.83;98257.81;10518575;28;20051;-67
2021/12/04 04:35:38;;;;;;;6.45;3.80;;;;;;;2.81;66.95;98247.91;10526964;28;20066;-68
2021/12/04 05:10:13;;;;;;;3.80;2.63;;;;;;;2.48;67.26;98229.09;10525704;28;20040;-68
2021/12/04 05:13:00;;;;;;;5.47;3.35;;;;;;;2.34;68.03;98239.34;10528481;28;20515;-67
2021/12/04 05:23:10;;;;;;;4.80;3.63;;;;;;;2.42;67.99;98231.22;10540540;28;20087;-67
2021/12/04 05:28:12;;;;;;;5.93;4.63;;;;;;;2.29;68.26;98225.03;10544815;28;20044;-68
2021/12/04 05:33:13;;;;;;;8.77;5.43;;;;;;;2.25;68.37;98224.38;10528155;28;20092;-67
2021/12/04 05:38:16;;;;;;;7.63;4.88;;;;;;;2.31;68.51;98224.03;10511046;28;20127;-68
2021/12/04 05:43:22;;;;;;;6.32;4.68;;;;;;;2.39;68.37;98221.03;10511569;28;20471;-68
2021/12/04 05:53:42;;;;;;;7.05;5.10;;;;;;;2.67;67.83;98221.19;10546979;28;20474;-68
2021/12/04 05:58:44;;;;;;;7.15;4.63;;;;;;;2.59;67.83;98208.72;10522347;28;20067;-68
2021/12/04 06:03:46;;;;;;;7.80;5.53;;;;;;;2.49;68.15;98207.56;10536140;28;22108;-68
2021/12/04 06:08:48;;;;;;;7.60;5.90;;;;;;;2.38;68.37;98209.88;10512660;28;20036;-68
2021/12/04 06:13:50;;;;;;;7.50;5.10;;;;;;;2.30;68.62;98206.88;10546813;28;20409;-68
2021/12/04 06:18:53;;;;;;;7.22;4.32;;;;;;;2.24;68.60;98207.22;10512872;28;20051;-68
2021/12/04 06:23:55;;;;;;;8.90;4.70;;;;;;;2.20;68.83;98197.97;10523597;28;20419;-68
2021/12/04 06:28:57;;;;;;;8.40;4.90;;;;;;;2.32;68.72;98199.88;10513747;28;20939;-67
2021/12/04 06:33:59;;;;;;;9.63;4.15;;;;;;;2.46;68.18;98199.97;10518943;28;20048;-68
2021/12/04 06:39:01;;;;;;;3.42;1.98;;;;;;;2.49;68.22;98197.25;10539197;28;20040;-67
2021/12/04 06:44:03;;;;;;;2.83;1.90;;;;;;;2.67;67.79;98188.47;10536257;28;20078;-68
2021/12/04 06:49:30;;;;;;;3.35;2.10;;;;;;;2.61;67.80;98186.25;10536090;28;20055;-67
2021/12/04 06:54:32;;;;;;;3.00;1.95;;;;;;;2.71;67.26;98195.13;10529104;28;20415;-67
2021/12/04 06:59:34;;;;;;;6.50;4.70;;;;;;;2.58;67.58;98190.75;10525988;28;20048;-67
2021/12/04 07:04:37;;;;;;;5.78;4.20;;;;;;;2.31;68.28;98181.94;10517854;28;20048;-68
2021/12/04 07:09:40;;;;;;;6.50;4.72;;;;;;;2.31;68.67;98185.34;10519015;28;20364;-68
2021/12/04 07:14:42;;;;;;;11.07;4.30;;;;;;;2.26;68.55;98179.59;10518517;28;20113;-68
2021/12/04 07:19:44;;;;;;;6.45;5.00;;;;;;;2.27;68.65;98170.94;10544163;28;20056;-67
2021/12/04 07:24:46;;;;;;;6.43;3.83;;;;;;;2.34;68.63;98174.84;10544590;28;20048;-68
2021/12/04 07:29:47;;;;;;;5.63;4.43;;;;;;;2.49;68.38;98163.69;10529429;28;20400;-68
2021/12/04 07:34:49;;;;;;;4.57;3.78;;;;;;;2.69;68.11;98171.16;10539008;28;20055;-67
2021/12/04 07:39:51;;;;;;;3.67;2.58;;;;;;;2.65;67.94;98163.66;10544388;28;20055;-68
2021/12/04 07:44:53;;;;;;;4.20;2.90;;;;;;;2.68;67.90;98150.63;10533090;28;20044;-67
2021/12/04 07:49:56;;;;;;;4.80;3.20;;;;;;;2.66;67.68;98142.94;10528309;28;20407;-67
2021/12/04 07:54:59;;;;;;;6.15;4.03;;;;;;;2.63;67.71;98145.69;10517976;28;20437;-68
2021/12/04 08:00:05;;;;;;;5.40;4.00;;;;;;;2.73;67.74;98148.59;10542572;28;20714;-67
2021/12/04 08:05:08;;;;;;;5.90;3.78;;;;;;;2.84;67.27;98154.81;10540418;27;20708;-67
2021/12/04 08:10:17;;;;;;;4.97;3.53;;;;;;;2.75;67.45;98155.34;10529915;28;20058;-67
2021/12/04 08:15:18;;;;;;;4.15;3.20;;;;;;;2.80;67.46;98150.75;10540078;28;20407;-68
2021/12/04 08:20:20;;;;;;;5.05;3.95;;;;;;;3.01;67.00;98162.44;10530512;28;20086;-67
2021/12/04 08:25:22;;;;;;;4.50;3.40;;;;;;;3.12;66.83;98148.91;10514852;28;20048;-68
2021/12/04 08:30:28;;;;;;;5.90;4.43;;;;;;;3.15;66.71;98160.81;10520664;28;20164;-68
2021/12/04 08:35:35;;;;;;;7.82;4.70;;;;;;;3.27;66.50;98160.09;10528551;28;20423;-67
2021/12/04 08:40:39;;;;;;;4.55;3.58;;;;;;;3.32;66.25;98134.81;10535079;28;20051;-68
2021/12/04 08:45:42;;;;;;;5.82;4.55;;;;;;;3.20;66.33;98153.63;10533495;28;20400;-67
2021/12/04 08:50:44;;;;;;;7.00;4.95;;;;;;;3.20;66.75;98141.53;10510744;28;20052;-67
2021/12/04 08:55:46;;;;;;;5.28;4.22;;;;;;;3.31;66.50;98140.91;10507839;28;20048;-68
2021/12/04 09:00:51;;;;;;;5.70;4.70;;;;;;;3.32;66.73;98137.38;10511084;28;20139;-68
2021/12/04 09:05:54;;;;;;;7.03;5.18;;;;;;;3.26;66.97;98143.75;10550354;28;20134;-68
2021/12/04 09:11:00;;;;;;;6.53;4.90;;;;;;;3.33;66.75;98142.50;10512851;28;20062;-68
2021/12/04 09:16:03;;;;;;;6.53;5.13;;;;;;;3.56;66.55;98156.59;10550574;28;20453;-68
2021/12/04 09:21:05;;;;;;;8.30;6.10;;;;;;;3.44;66.36;98153.00;10513950;28;20042;-68
2021/12/04 09:26:10;;;;;;;8.65;6.78;;;;;;;3.16;66.76;98158.13;10504551;28;20246;-68
2021/12/04 10:14:48;;;;;;;7.43;5.47;;;;;;;3.98;65.43;98092.00;10537331;28;20059;-68
2021/12/04 10:19:35;;;;;;;8.32;5.40;;;;;;;3.85;65.50;98078.16;10513256;28;20127;-71
2021/12/04 10:35:07;;;;;;;7.37;5.23;;;;;;;3.71;66.19;98052.31;10507758;28;20154;-72
2021/12/04 10:40:09;;;;;;;12.07;7.30;;;;;;;3.79;66.19;98040.56;10507040;28;20044;-72
2021/12/04 10:45:12;;;;;;;10.57;7.00;;;;;;;3.81;66.55;98012.03;10514503;28;20058;-70
2021/12/04 10:50:26;;;;;;;13.95;8.43;;;;;;;3.94;66.56;98015.53;10535256;28;20411;-70
2021/12/04 11:00:44;;;;;;;13.68;8.57;;;;;;;3.98;66.44;97993.72;10516052;28;20092;-70
2021/12/04 11:06:41;;;;;;;13.30;7.37;;;;;;;3.88;66.39;97979.72;10514464;28;20372;-70
2021/12/04 11:27:52;;;;;;;11.30;7.80;;;;;;;4.32;66.31;97922.50;10531308;28;20047;-72
2021/12/04 11:43:22;;;;;;;11.88;7.90;;;;;;;4.38;66.44;97904.81;10515636;28;20318;-70
2021/12/04 11:48:35;;;;;;;9.45;7.30;;;;;;;4.53;66.49;97896.03;10530900;28;20044;-72
2021/12/04 11:53:37;;;;;;;9.77;7.47;;;;;;;4.49;66.29;97889.41;10537945;28;20058;-72
2021/12/04 11:58:45;;;;;;;9.02;6.97;;;;;;;4.56;66.27;97877.69;10528092;28;20157;-72
2021/12/04 12:03:53;;;;;;;12.73;8.40;;;;;;;4.54;66.30;97869.19;10525482;28;20055;-72
2021/12/04 12:09:05;;;;;;;9.30;7.07;;;;;;;4.59;66.70;97869.72;10553944;28;20189;-72
2021/12/04 12:14:11;;;;;;;10.55;7.05;;;;;;;4.69;66.35;97856.97;10538486;28;20416;-72
2021/12/04 12:19:39;;;;;;;9.93;6.88;;;;;;;4.81;66.43;97843.19;10523409;28;20048;-72
2021/12/04 12:36:12;;;;;;;7.88;6.18;;;;;;;4.78;66.34;97825.25;10512159;28;20056;-72
2021/12/04 12:41:17;;;;;;;7.50;6.22;;;;;;;5.04;66.14;97805.31;10510286;28;20367;-71
2021/12/04 12:46:20;;;;;;;8.50;5.93;;;;;;;5.04;65.58;97810.50;10514216;28;20059;-71
2021/12/04 12:51:28;;;;;;;9.05;6.15;;;;;;;4.97;66.07;97793.72;10527456;28;20112;-71
2021/12/04 12:56:32;;;;;;;7.72;6.05;;;;;;;4.89;65.93;97785.66;10532122;28;20084;-71
2021/12/04 13:12:25;;;;;;;8.80;6.57;;;;;;;4.62;66.93;97762.53;10512532;28;20051;-71
2021/12/04 13:17:29;;;;;;;8.73;6.78;;;;;;;4.44;67.24;97761.22;10519372;28;20097;-71
2021/12/04 13:22:32;;;;;;;8.57;7.15;;;;;;;4.40;67.46;97752.03;10519867;28;20129;-71
2021/12/04 13:32:39;;;;;;;10.38;7.93;;;;;;;4.34;67.88;97745.53;10530440;28;20059;-71
2021/12/04 13:37:42;;;;;;;13.13;7.00;;;;;;;4.41;68.07;97795.91;10541707;28;20163;-71
2021/12/04 13:42:44;;;;;;;13.65;9.40;;;;;;;4.45;67.75;97755.13;10537003;28;20055;-71
2021/12/04 13:47:55;;;;;;;16.92;9.95;;;;;;;4.21;69.05;97742.13;10538857;28;20407;-70
2021/12/04 13:53:04;;;;;;;15.18;9.60;;;;;;;4.19;69.41;97761.28;10524027;28;20404;-72
2021/12/04 13:58:06;;;;;;;11.88;7.60;;;;;;;4.27;68.64;97741.69;10551823;28;20044;-71
2021/12/04 14:03:07;;;;;;;16.83;9.32;;;;;;;4.25;68.93;97691.00;10531487;28;20074;-71
2021/12/04 14:08:10;;;;;;;13.15;8.15;;;;;;;4.16;69.26;97645.91;10530342;28;20048;-70
2021/12/04 14:13:16;;;;;;;10.63;7.70;;;;;;;4.13;69.49;97690.06;10533585;28;20140;-71
2021/12/04 14:18:19;;;;;;;13.00;9.13;;;;;;;4.29;69.13;97693.25;10548912;28;20150;-72
2021/12/04 14:23:25;;;;;;;10.55;6.88;;;;;;;4.42;68.96;97677.69;10542315;28;20042;-72
2021/12/04 14:28:33;;;;;;;14.60;8.23;;;;;;;4.55;68.80;97679.31;10508744;28;20395;-72
2021/12/04 14:33:38;;;;;;;8.20;5.75;;;;;;;4.66;68.44;97688.91;10511743;28;20056;-72
2021/12/04 14:38:43;;;;;;;7.75;5.10;;;;;;;4.83;68.21;97690.28;10510030;28;20040;-72
2021/12/04 14:43:45;;;;;;;7.22;5.07;;;;;;;4.95;67.90;97690.22;10507399;28;20109;-72
2021/12/04 14:48:50;;;;;;;8.70;5.30;;;;;;;5.00;67.73;97690.72;10509386;28;20052;-72
2021/12/04 14:53:56;;;;;;;11.15;7.10;;;;;;;5.00;67.78;97676.94;10510011;28;20048;-72
2021/12/04 14:58:58;;;;;;;8.48;5.80;;;;;;;5.11;67.84;97675.22;10508503;28;20131;-72
2021/12/04 15:04:02;;;;;;;8.27;5.35;;;;;;;5.10;67.45;97681.34;10510005;28;20674;-72
2021/12/04 15:09:13;;;;;;;10.57;7.25;;;;;;;4.90;68.35;97675.97;10539981;28;20079;-72
2021/12/04 15:14:19;;;;;;;;;;;;;;;4.62;69.28;97695.22;10514274;28;20066;-72
2021/12/04 15:19:39;;;;;;;16.13;9.73;;;;;;;4.75;68.80;97705.53;10541623;28;20043;-72
2021/12/04 15:24:44;;;;;;;18.70;11.43;;;;;;;4.55;69.50;97722.50;10549487;28;20343;-72
2021/12/04 15:29:48;;;;;;;9.48;6.00;;;;;;;4.69;69.24;97722.34;10548283;28;20048;-71
2021/12/04 15:34:57;;;;;;;13.60;7.93;;;;;;;4.82;69.02;97738.66;10533394;28;20411;-72
2021/12/04 15:40:00;;;;;;;14.48;8.52;;;;;;;4.78;69.16;97747.56;10524872;28;20040;-72
2021/12/04 15:50:25;;;;;;;15.60;10.25;;;;;;;4.89;69.00;97760.59;10533168;28;20511;-72
2021/12/04 15:55:35;;;;;;;23.33;13.23;;;;;;;4.93;68.70;97771.56;10547145;28;20505;-68
2021/12/04 16:00:45;;;;;;;44.92;22.90;;;;;;;4.94;68.89;97779.25;10518800;28;20056;-67
2021/12/04 16:05:52;;;;;;;56.00;30.00;;;;;;;5.00;68.88;97765.03;10535186;28;20048;-68
2021/12/04 16:10:55;;;;;;;35.13;21.42;;;;;;;4.98;68.79;97779.84;10532013;28;20418;-68
2021/12/04 16:15:58;;;;;;;29.92;19.08;;;;;;;4.92;68.83;97796.66;10540094;28;20474;-68
2021/12/04 16:21:01;;;;;;;16.15;11.13;;;;;;;4.87;68.72;97803.91;10528823;28;20074;-68
2021/12/04 16:26:04;;;;;;;16.95;12.27;;;;;;;4.71;69.21;97805.91;10538484;28;20044;-68
2021/12/04 16:36:36;;;;;;;13.02;9.60;;;;;;;4.41;70.16;97839.91;10522575;28;20055;-68
2021/12/04 16:41:53;;;;;;;9.95;7.78;;;;;;;4.27;70.95;97852.94;10546940;28;20140;-68
2021/12/04 16:46:55;;;;;;;9.77;6.55;;;;;;;4.25;71.37;97861.75;10539399;28;20047;-68
2021/12/04 16:57:46;;;;;;;4.60;3.20;;;;;;;4.64;71.08;97869.41;10534743;28;20043;-67
2021/12/04 17:02:48;;;;;;;4.28;2.85;;;;;;;4.80;70.59;97876.97;10515170;28;20511;-69
2021/12/04 17:07:50;;;;;;;4.45;2.92;;;;;;;4.80;70.44;97888.13;10544100;28;20487;-68
2021/12/04 17:12:51;;;;;;;4.07;2.42;;;;;;;4.66;70.05;97890.84;10531608;28;20523;-68
2021/12/04 17:17:54;;;;;;;3.53;2.22;;;;;;;4.52;70.17;97901.28;10536109;28;20051;-68
2021/12/04 17:22:56;;;;;;;4.20;2.53;;;;;;;4.50;69.94;97913.50;10510865;28;20188;-68
2021/12/04 17:27:58;;;;;;;3.47;2.30;;;;;;;4.40;70.00;97915.91;10529937;28;20089;-68
2021/12/04 17:32:59;;;;;;;4.63;2.40;;;;;;;4.46;69.91;97933.59;10531762;28;20065;-68
2021/12/04 17:38:04;;;;;;;5.22;3.03;;;;;;;4.56;69.73;97957.09;10526379;28;20091;-68
2021/12/04 17:43:06;;;;;;;3.38;2.17;;;;;;;4.65;69.23;97972.03;10530983;28;20513;-68
2021/12/04 17:48:09;;;;;;;3.53;2.20;;;;;;;4.65;69.10;97959.94;10546619;28;20513;-68
2021/12/04 17:53:12;;;;;;;4.47;2.10;;;;;;;4.66;68.41;97974.50;10534997;28;20135;-68
2021/12/04 17:58:13;;;;;;;7.10;2.78;;;;;;;4.79;68.50;97971.09;10530491;28;20044;-68
2021/12/04 18:03:20;;;;;;;4.45;2.53;;;;;;;4.76;67.56;97973.91;10515835;28;20047;-68
2021/12/04 18:08:23;;;;;;;4.88;2.20;;;;;;;4.79;67.84;97974.53;10511367;28;20598;-68
2021/12/04 18:13:31;;;;;;;2.80;1.80;;;;;;;4.89;67.30;97990.25;10529470;28;20047;-68
2021/12/04 18:18:34;;;;;;;4.28;2.00;;;;;;;4.73;67.43;98006.00;10521354;28;20564;-68
2021/12/04 18:23:36;;;;;;;5.40;2.30;;;;;;;4.97;67.31;98022.50;10536725;28;20043;-68
2021/12/04 18:28:39;;;;;;;4.20;2.28;;;;;;;4.93;67.44;98015.03;10531467;28;20399;-68
2021/12/04 18:33:41;;;;;;;3.92;2.17;;;;;;;4.95;67.31;98018.34;10542507;28;20055;-68
2021/12/04 18:38:44;;;;;;;6.10;4.40;;;;;;;4.97;67.42;98024.25;10530681;28;20131;-68
2021/12/04 18:43:46;;;;;;;5.45;2.30;;;;;;;4.85;68.03;98035.44;10532382;28;20044;-68
2021/12/04 18:48:48;;;;;;;5.43;2.55;;;;;;;4.88;68.03;98038.69;10527627;28;20153;-67
2021/12/04 18:53:51;;;;;;;4.45;3.10;;;;;;;4.85;68.18;98053.56;10553360;28;20056;-68
2021/12/04 18:58:53;;;;;;;4.82;3.10;;;;;;;4.79;68.45;98054.81;10548479;28;20127;-68
2021/12/04 19:03:55;;;;;;;5.97;2.97;;;;;;;4.77;68.42;98046.31;10548199;28;20162;-67
2021/12/04 19:08:58;;;;;;;4.75;3.42;;;;;;;4.78;68.24;98075.63;10540141;28;20135;-68
2021/12/04 19:14:01;;;;;;;8.00;3.17;;;;;;;4.75;68.08;98081.84;10538823;28;20146;-67
2021/12/04 19:19:04;;;;;;;5.25;3.05;;;;;;;4.64;68.02;98082.53;10557005;28;20143;-67
2021/12/04 19:24:06;;;;;;;5.80;2.97;;;;;;;4.70;67.66;98097.66;10544865;28;20584;-67
2021/12/04 19:29:15;;;;;;;10.25;4.90;;;;;;;4.81;67.00;98107.31;10535808;28;20107;-68
2021/12/04 19:55:30;;;;;;;5.45;3.13;;;;;;;4.59;67.30;98143.31;10552530;28;19923;-68
2021/12/04 20:00:42;;;;;;;7.80;3.80;;;;;;;4.61;66.97;98139.69;10529543;28;20043;-68
2021/12/04 20:16:28;;;;;;;5.87;2.90;;;;;;;4.43;66.59;98171.91;10548638;28;20078;-68
2021/12/04 20:21:34;;;;;;;6.82;2.45;;;;;;;4.42;66.42;98180.59;10532828;28;20048;-68
2021/12/04 20:26:48;;;;;;;10.95;2.47;;;;;;;4.36;66.11;98191.34;10527451;28;20052;-68
2021/12/04 21:50:44;;;;;;;11.23;4.20;;;;;;;4.02;64.55;98322.84;10532141;28;20115;-69
2021/12/04 21:56:26;;;;;;;8.35;3.00;;;;;;;4.01;64.31;98322.00;10520600;28;20054;-68
2021/12/04 22:12:25;;;;;;;8.70;3.47;;;;;;;3.98;64.33;98344.63;10528811;28;20380;-69
2021/12/04 22:59:45;;;;;;;8.45;2.58;;;;;;;3.81;64.20;98377.44;10537071;28;20449;-68
2021/12/04 23:15:23;;;;;;;11.60;2.83;;;;;;;3.82;64.26;98386.84;10513659;28;20052;-68
